Decoded Metar for PAGS (GUSTAVUS in AK, USA) (IATA:GST) | Meteo·Mobile Aviation Weather
aviador You're here:

PAGS Decoded Metar

GUSTAVUS in AK, USA
Report Time2018-09-23 14:07:00
UTC Time2018-09-23 14:16:28
Flight Rules mvfr MVFR
Wind140° at 09 kt
W.Decomp.*RWY 11: 8.9 kt HW 1.6 kt RCW
RWY 20: 1.6 kt HW 8.9 kt LCW
W.Rank140° ranks 1
Current wind is below 140° avg. (9.5)
Visibility9999 m
Phenomena:N/A
Clouds:Overcast 014 Hf
Expected CloudBase > 400 ft AGL from Temp-Dew spread
Ceiling1,400 ft
Temp11°C (ISA -4)
Dew Point10°C (94% RH)
AAT7.8°C
QNH1009 hPa
Density Alt-138 ft
Elevation30 ft
Report Wrong Elevation
Raw Report
PAGS 231407Z AUTO 14009KT 10SM OVC014 11/10 A2979 RMK AO2 RAE1359
P0001=

Extra information for PAGS:More info

Metar Taf Metar & Taf Last 4 Metars F.Rules Stats Wind Profile Meteogram Temp Stats Airport Information Weather charts Add Link Nearby VenuesMetar ALERT Operation Metar Decoded Social comments

AIRNAV info for PAGS